createdAt,value
2022-10-14T00:01:57.877Z,99954.06
2022-10-14T00:04:24.417Z,99942.47
2022-10-14T00:06:51.004Z,99939.06
2022-10-14T00:09:17.399Z,99941.91
2022-10-14T00:11:43.863Z,99943.97
2022-10-14T00:14:14.437Z,99938.22
2022-10-14T00:16:42.809Z,99937.78
2022-10-14T00:19:09.842Z,99936.69
2022-10-14T00:21:38.708Z,99941.38
2022-10-14T00:24:05.687Z,99939.94
2022-10-14T00:26:35.187Z,99939.63
2022-10-14T00:29:03.431Z,99941.88
2022-10-14T00:31:30.338Z,99935.03
2022-10-14T00:33:56.928Z,99938.56
2022-10-14T00:36:24.589Z,99932.81
2022-10-14T00:38:52.036Z,99934.03
2022-10-14T00:41:24.910Z,99935.81
2022-10-14T00:43:57.404Z,99931.97
2022-10-14T00:46:25.723Z,99931.81
2022-10-14T00:48:52.637Z,99929.13
2022-10-14T00:51:20.079Z,99939.03
2022-10-14T00:53:46.696Z,99934.88
2022-10-14T00:56:16.282Z,99937.22
2022-10-14T00:58:43.999Z,99930.38
2022-10-14T01:01:11.961Z,99929.22
2022-10-14T01:03:40.494Z,99931.31
2022-10-14T01:06:32.041Z,99931.50
2022-10-14T01:09:07.862Z,99935.03
2022-10-14T01:11:40.650Z,99930.72
2022-10-14T01:14:24.961Z,99932.94
2022-10-14T01:16:57.320Z,99920.69
2022-10-14T01:19:50.755Z,99927.41
2022-10-14T01:22:25.814Z,99926.41
2022-10-14T01:25:13.080Z,99932.63
2022-10-14T01:27:49.505Z,99923.88
2022-10-14T01:30:24.343Z,99932.66
2022-10-14T01:32:51.249Z,99929.28
2022-10-14T01:35:37.987Z,99927.13
2022-10-14T01:38:11.496Z,99927.66
2022-10-14T01:40:50.119Z,99926.97
2022-10-14T01:43:18.137Z,99926.97
2022-10-14T01:45:46.788Z,99922.78
2022-10-14T01:48:15.382Z,99918.09
2022-10-14T01:50:43.729Z,99912.53
2022-10-14T01:53:34.392Z,99914.72
2022-10-14T01:56:02.119Z,99912.38
2022-10-14T01:58:31.582Z,99913.72
2022-10-14T02:00:58.148Z,99910.53
2022-10-14T02:03:24.795Z,99900.25
2022-10-14T02:06:00.045Z,99905.63
2022-10-14T02:08:41.985Z,99908.16
2022-10-14T02:11:15.698Z,99902.94
2022-10-14T02:14:03.847Z,99903.31
2022-10-14T02:16:54.521Z,99895.06
2022-10-14T02:19:54.206Z,99898.06
2022-10-14T02:22:31.677Z,99895.84
2022-10-14T02:25:04.561Z,99897.19
2022-10-14T02:27:31.680Z,99890.84
2022-10-14T02:29:59.568Z,99889.16
2022-10-14T02:32:28.096Z,99894.00
2022-10-14T02:34:57.885Z,99889.00
2022-10-14T02:37:25.703Z,99887.47
2022-10-14T02:39:56.848Z,99879.00
2022-10-14T02:42:23.575Z,99878.22
2022-10-14T02:44:55.027Z,99879.59
2022-10-14T02:47:22.391Z,99886.16
2022-10-14T02:49:48.855Z,99878.41
2022-10-14T02:52:15.302Z,99881.28
2022-10-14T02:54:41.755Z,99880.75
2022-10-14T02:57:09.983Z,99886.84
2022-10-14T02:59:36.636Z,99880.13
2022-10-14T03:02:03.611Z,99884.66
2022-10-14T03:04:30.063Z,99884.56
2022-10-14T03:06:56.545Z,99887.06
2022-10-14T03:09:22.967Z,99881.50
2022-10-14T03:11:50.836Z,99882.50
2022-10-14T03:14:17.285Z,99880.66
2022-10-14T03:16:43.660Z,99878.16
2022-10-14T03:19:10.167Z,99876.78
2022-10-14T03:21:40.795Z,99879.31
2022-10-14T03:24:08.777Z,99875.78
2022-10-14T03:26:35.249Z,99878.31
2022-10-14T03:29:01.663Z,99875.47
2022-10-14T03:31:28.138Z,99877.31
2022-10-14T03:33:54.603Z,99873.59
2022-10-14T03:36:21.082Z,99876.63
2022-10-14T03:38:47.528Z,99879.31
2022-10-14T03:41:14.051Z,99875.47
2022-10-14T03:43:40.481Z,99880.00
2022-10-14T03:46:06.951Z,99879.22
2022-10-14T03:48:33.429Z,99870.41
2022-10-14T03:50:59.843Z,99875.09
2022-10-14T03:53:26.338Z,99865.19
2022-10-14T03:55:52.772Z,99858.94
2022-10-14T03:58:19.182Z,99858.94
2022-10-14T04:00:45.639Z,99862.16
2022-10-14T04:03:12.065Z,99859.28
2022-10-14T04:05:39.675Z,99861.31
2022-10-14T04:08:06.360Z,99855.56
2022-10-14T04:10:32.761Z,99856.09
2022-10-14T04:12:59.226Z,99857.78
2022-10-14T04:15:25.707Z,99850.84
2022-10-14T04:17:52.146Z,99847.84
2022-10-14T04:20:18.772Z,99842.94
2022-10-14T04:22:45.260Z,99840.25
2022-10-14T04:25:12.350Z,99845.16
2022-10-14T04:27:38.784Z,99846.16
2022-10-14T04:30:06.096Z,99837.91
2022-10-14T04:32:32.626Z,99845.84
2022-10-14T04:34:59.046Z,99846.69
2022-10-14T04:37:25.591Z,99844.53
2022-10-14T04:39:52.332Z,99843.00
2022-10-14T04:42:20.300Z,99852.38
2022-10-14T04:44:46.890Z,99851.38
2022-10-14T04:47:13.401Z,99847.72
2022-10-14T04:49:39.791Z,99848.84
2022-10-14T04:52:06.574Z,99850.41
2022-10-14T04:54:33.300Z,99848.56
2022-10-14T04:56:59.951Z,99842.44
2022-10-14T04:59:26.500Z,99843.00
2022-10-14T05:01:53.157Z,99839.47
2022-10-14T05:04:19.931Z,99840.06
2022-10-14T05:06:46.346Z,99840.75
2022-10-14T05:09:12.743Z,99836.53
2022-10-14T05:11:41.600Z,99829.66
2022-10-14T05:14:08.175Z,99832.34
2022-10-14T05:16:34.775Z,99833.16
2022-10-14T05:19:03.603Z,99830.47
2022-10-14T05:21:36.465Z,99829.66
2022-10-14T05:24:03.120Z,99829.31
2022-10-14T05:26:29.528Z,99825.94
2022-10-14T05:28:56.032Z,99831.00
2022-10-14T05:31:22.504Z,99825.75
2022-10-14T05:33:48.879Z,99828.97
2022-10-14T05:36:15.285Z,99822.22
2022-10-14T05:38:41.713Z,99823.59
2022-10-14T05:41:09.498Z,99824.59
2022-10-14T05:43:35.988Z,99830.81
2022-10-14T05:46:02.397Z,99827.69
2022-10-14T05:48:29.009Z,99826.16
2022-10-14T05:50:55.441Z,99832.22
2022-10-14T05:53:21.913Z,99834.91
2022-10-14T05:55:49.396Z,99834.63
2022-10-14T05:58:15.926Z,99831.06
2022-10-14T06:00:42.308Z,99834.94
2022-10-14T06:03:11.603Z,99832.59
2022-10-14T06:05:38.548Z,99843.03
2022-10-14T06:08:05.348Z,99846.28
2022-10-14T06:10:31.768Z,99844.25
2022-10-14T06:12:58.344Z,99849.28
2022-10-14T06:15:24.744Z,99847.59
2022-10-14T06:17:51.156Z,99845.94
2022-10-14T06:20:17.563Z,99845.56
2022-10-14T06:22:44.222Z,99841.56
2022-10-14T06:25:10.862Z,99853.00
2022-10-14T06:27:37.433Z,99851.34
2022-10-14T06:30:04.171Z,99865.34
2022-10-14T06:32:30.587Z,99855.53
2022-10-14T06:34:56.962Z,99860.47
2022-10-14T06:37:23.589Z,99858.41
2022-10-14T06:39:49.980Z,99859.75
2022-10-14T06:42:16.436Z,99856.88
2022-10-14T06:44:42.790Z,99860.91
2022-10-14T06:47:09.193Z,99863.78
2022-10-14T06:49:35.737Z,99872.22
2022-10-14T06:52:02.190Z,99871.72
2022-10-14T06:54:28.670Z,99879.66
2022-10-14T06:56:55.082Z,99873.56
2022-10-14T06:59:21.546Z,99871.22
2022-10-14T07:01:50.167Z,99880.66
2022-10-14T07:04:16.726Z,99877.81
2022-10-14T07:06:43.120Z,99870.19
2022-10-14T07:09:09.504Z,99880.66
2022-10-14T07:11:35.916Z,99882.34
2022-10-14T07:14:04.545Z,99882.25
2022-10-14T07:16:31.065Z,99891.09
2022-10-14T07:18:57.593Z,99887.63
2022-10-14T07:21:24.040Z,99892.69
2022-10-14T07:23:50.765Z,99894.53
2022-10-14T07:26:17.457Z,99895.63
2022-10-14T07:28:44.127Z,99891.25
2022-10-14T07:31:11.189Z,99892.41
2022-10-14T07:33:39.353Z,99900.97
2022-10-14T07:36:09.919Z,99901.13
2022-10-14T07:38:37.130Z,99908.03
2022-10-14T07:41:16.821Z,99897.75
2022-10-14T07:43:44.776Z,99907.09
2022-10-14T07:46:12.940Z,99920.41
2022-10-14T07:48:55.924Z,99914.34
2022-10-14T07:51:23.247Z,99914.75
2022-10-14T07:53:50.238Z,99919.03
2022-10-14T07:56:16.702Z,99920.88
2022-10-14T07:58:44.599Z,99916.28
2022-10-14T08:01:18.606Z,99919.94
2022-10-14T08:03:46.467Z,99925.09
2022-10-14T08:06:14.055Z,99924.94
2022-10-14T08:08:41.383Z,99918.13
2022-10-14T08:11:11.705Z,99919.03
2022-10-14T08:13:41.929Z,99920.25
2022-10-14T08:16:26.207Z,99927.19
2022-10-14T08:18:54.969Z,99922.22
2022-10-14T08:21:21.487Z,99929.53
2022-10-14T08:23:48.047Z,99926.81
2022-10-14T08:26:27.107Z,99928.09
2022-10-14T08:28:53.834Z,99930.78
2022-10-14T08:31:21.176Z,99929.16
2022-10-14T08:33:47.705Z,99924.50
2022-10-14T08:36:14.931Z,99920.22
2022-10-14T08:38:42.620Z,99930.69
2022-10-14T08:41:12.112Z,99923.47
2022-10-14T08:43:42.013Z,99922.53
2022-10-14T08:46:23.236Z,99924.97
2022-10-14T08:48:51.394Z,99926.41
2022-10-14T08:51:19.666Z,99914.03
2022-10-14T08:53:55.928Z,99909.47
2022-10-14T08:56:23.612Z,99914.31
2022-10-14T08:58:51.760Z,99914.19
2022-10-14T09:01:34.424Z,99913.28
2022-10-14T09:04:04.195Z,99906.00
2022-10-14T09:06:32.679Z,99906.63
2022-10-14T09:09:09.320Z,99915.94
2022-10-14T09:11:40.223Z,99914.38
2022-10-14T09:14:09.082Z,99911.22
2022-10-14T09:16:38.940Z,99911.69
2022-10-14T09:19:12.233Z,99915.50
2022-10-14T09:21:52.525Z,99896.28
2022-10-14T09:24:29.065Z,99902.69
2022-10-14T09:27:03.480Z,99904.69
2022-10-14T09:29:59.326Z,99905.88
2022-10-14T09:32:36.713Z,99909.63
2022-10-14T09:35:03.974Z,99905.53
2022-10-14T09:37:32.931Z,99901.78
2022-10-14T09:40:01.858Z,99907.69
2022-10-14T09:43:07.447Z,99906.69
2022-10-14T09:46:03.477Z,99899.47
2022-10-14T09:48:34.408Z,99908.50
2022-10-14T09:51:03.795Z,99896.41
2022-10-14T09:53:30.200Z,99890.38
2022-10-14T09:55:59.315Z,99889.22
2022-10-14T09:58:34.073Z,99889.53
2022-10-14T10:01:01.463Z,99889.81
2022-10-14T10:03:32.679Z,99886.00
2022-10-14T10:06:06.606Z,99883.34
2022-10-14T10:08:35.353Z,99875.41
2022-10-14T10:11:10.607Z,99871.09
2022-10-14T10:13:45.016Z,99865.69
2022-10-14T10:16:38.146Z,99859.53
2022-10-14T10:19:34.348Z,99863.41
2022-10-14T10:24:47.306Z,99867.97
2022-10-14T10:27:25.081Z,99861.03
2022-10-14T10:29:52.172Z,99858.88
2022-10-14T10:32:44.783Z,99859.31
2022-10-14T10:35:36.945Z,99857.19
2022-10-14T10:38:15.840Z,99857.53
2022-10-14T10:40:48.145Z,99859.75
2022-10-14T10:43:50.357Z,99855.53
2022-10-14T10:46:50.867Z,99853.06
2022-10-14T10:49:41.041Z,99855.03
2022-10-14T10:52:24.184Z,99851.09
2022-10-14T10:54:56.578Z,99854.72
2022-10-14T10:57:49.079Z,99849.88
2022-10-14T11:00:20.884Z,99846.53
2022-10-14T11:03:02.203Z,99843.38
2022-10-14T11:05:38.165Z,99838.16
2022-10-14T11:08:39.944Z,99834.19
2022-10-14T11:11:35.155Z,99833.53
2022-10-14T11:14:06.792Z,99838.97
2022-10-14T11:16:48.366Z,99819.69
2022-10-14T11:19:48.869Z,99829.97
2022-10-14T11:22:38.849Z,99828.50
2022-10-14T11:25:44.391Z,99818.66
2022-10-14T11:28:38.263Z,99826.59
2022-10-14T11:31:27.710Z,99836.22
2022-10-14T11:34:07.812Z,99832.63
2022-10-14T11:37:05.230Z,99834.13
2022-10-14T11:39:50.187Z,99821.56
2022-10-14T11:42:27.082Z,99821.13
2022-10-14T11:45:20.483Z,99819.47
2022-10-14T11:47:51.194Z,99815.69
2022-10-14T11:50:26.699Z,99810.66
2022-10-14T11:52:58.261Z,99809.19
2022-10-14T11:55:29.073Z,99804.16
2022-10-14T11:58:15.049Z,99794.25
2022-10-14T12:00:44.731Z,99799.63
2022-10-14T12:03:45.626Z,99793.72
2022-10-14T12:06:19.373Z,99792.66
2022-10-14T12:09:51.720Z,99788.78
2022-10-14T12:12:22.471Z,99782.09
2022-10-14T12:14:51.772Z,99780.91
2022-10-14T12:17:24.938Z,99775.13
2022-10-14T12:19:52.041Z,99768.31
2022-10-14T12:22:24.531Z,99770.41
2022-10-14T12:24:57.090Z,99775.66
2022-10-14T12:27:26.032Z,99774.00
2022-10-14T12:29:53.022Z,99767.50
2022-10-14T12:32:21.782Z,99772.13
2022-10-14T12:34:58.768Z,99772.53
2022-10-14T12:37:28.906Z,99764.53
2022-10-14T12:40:05.841Z,99767.22
2022-10-14T12:42:37.972Z,99761.53
2022-10-14T12:45:20.628Z,99766.78
2022-10-14T12:47:47.471Z,99760.28
2022-10-14T12:50:13.909Z,99756.03
2022-10-14T12:52:41.478Z,99753.44
2022-10-14T12:55:13.674Z,99758.00
2022-10-14T12:57:42.344Z,99755.94
2022-10-14T13:00:21.144Z,99758.94
2022-10-14T13:02:48.191Z,99749.03
2022-10-14T13:05:34.821Z,99754.72
2022-10-14T13:08:20.253Z,99749.00
2022-10-14T13:10:47.930Z,99753.25
2022-10-14T13:13:52.887Z,99749.06
2022-10-14T13:16:25.403Z,99745.16
2022-10-14T13:18:53.236Z,99746.06
2022-10-14T13:21:27.589Z,99732.69
2022-10-14T13:23:55.181Z,99735.41
2022-10-14T13:26:27.780Z,99738.38
2022-10-14T13:29:04.302Z,99733.28
2022-10-14T13:31:38.504Z,99733.13
2022-10-14T13:34:14.376Z,99728.53
2022-10-14T13:36:56.962Z,99727.03
2022-10-14T13:39:23.557Z,99725.16
2022-10-14T13:41:51.513Z,99716.38
2022-10-14T13:44:21.793Z,99718.47
2022-10-14T13:46:49.123Z,99717.63
2022-10-14T13:49:18.373Z,99713.63
2022-10-14T13:51:50.793Z,99716.16
2022-10-14T13:54:18.616Z,99703.81
2022-10-14T14:02:43.515Z,99707.34
2022-10-14T14:05:15.078Z,99702.31
2022-10-14T14:10:29.689Z,99693.94
2022-10-14T14:12:56.246Z,99701.50
2022-10-14T14:15:27.499Z,99702.72
2022-10-14T14:17:54.338Z,99700.63
2022-10-14T14:20:23.912Z,99694.16
2022-10-14T14:22:50.609Z,99695.63
2022-10-14T14:25:38.409Z,99696.88
2022-10-14T14:28:15.117Z,99694.16
2022-10-14T14:30:55.672Z,99692.06
2022-10-14T14:33:29.675Z,99691.22
2022-10-14T14:36:01.813Z,99697.47
2022-10-14T14:38:36.308Z,99688.28
2022-10-14T14:41:14.868Z,99683.06
2022-10-14T14:43:47.305Z,99674.38
2022-10-14T14:46:32.997Z,99678.22
2022-10-14T14:48:59.925Z,99673.75
2022-10-14T14:51:36.776Z,99676.13
2022-10-14T14:54:04.306Z,99658.91
2022-10-14T14:56:40.536Z,99657.66
2022-10-14T14:59:21.699Z,99657.22
2022-10-14T15:01:48.679Z,99656.16
2022-10-14T15:04:20.727Z,99654.25
2022-10-14T15:07:06.668Z,99656.09
2022-10-14T15:09:54.803Z,99644.56
2022-10-14T15:12:24.077Z,99642.75
2022-10-14T15:14:54.619Z,99645.47
2022-10-14T15:17:39.458Z,99637.72
2022-10-14T15:20:17.840Z,99645.81
2022-10-14T15:22:46.976Z,99650.00
2022-10-14T15:25:24.671Z,99643.31
2022-10-14T15:27:52.737Z,99639.75
2022-10-14T15:30:23.475Z,99646.22
2022-10-14T15:32:56.609Z,99651.22
2022-10-14T15:35:24.055Z,99647.47
2022-10-14T15:37:50.752Z,99642.03
2022-10-14T15:40:23.704Z,99653.47
2022-10-14T15:42:50.447Z,99643.66
2022-10-14T15:45:17.746Z,99650.38
2022-10-14T15:47:44.411Z,99649.94
2022-10-14T15:50:23.187Z,99657.25
2022-10-14T15:52:53.358Z,99647.75
2022-10-14T15:55:22.458Z,99650.25
2022-10-14T15:57:50.207Z,99640.81
2022-10-14T16:00:19.001Z,99643.19
2022-10-14T16:02:47.412Z,99638.53
2022-10-14T16:05:19.697Z,99639.91
2022-10-14T16:07:48.298Z,99643.19
2022-10-14T16:10:18.791Z,99640.88
2022-10-14T16:12:46.810Z,99640.88
2022-10-14T16:15:29.122Z,99637.00
2022-10-14T16:17:55.660Z,99638.94
2022-10-14T16:20:22.504Z,99630.47
2022-10-14T16:22:49.017Z,99628.97
2022-10-14T16:25:20.571Z,99626.41
2022-10-14T16:27:46.943Z,99626.22
2022-10-14T16:30:13.464Z,99622.66
2022-10-14T16:32:39.872Z,99620.94
2022-10-14T16:35:06.971Z,99618.19
2022-10-14T16:37:33.523Z,99621.56
2022-10-14T16:40:00.048Z,99614.66
2022-10-14T16:42:26.805Z,99617.16
2022-10-14T16:44:53.178Z,99609.94
2022-10-14T16:47:20.361Z,99611.72
2022-10-14T16:49:49.173Z,99623.41
2022-10-14T16:52:16.134Z,99607.72
2022-10-14T16:54:42.559Z,99604.66
2022-10-14T16:57:09.051Z,99613.38
2022-10-14T16:59:35.495Z,99608.59
2022-10-14T17:02:03.991Z,99606.28
2022-10-14T17:04:30.438Z,99612.09
2022-10-14T17:06:56.949Z,99613.91
2022-10-14T17:11:54.802Z,99611.94
2022-10-14T17:14:24.247Z,99616.47
2022-10-14T17:16:52.363Z,99618.31
2022-10-14T17:19:19.696Z,99621.63
2022-10-14T17:21:47.209Z,99626.06
2022-10-14T17:24:16.839Z,99626.53
2022-10-14T17:26:44.887Z,99624.84
2022-10-14T17:29:11.378Z,99626.44
2022-10-14T17:31:38.914Z,99623.03
2022-10-14T17:34:05.434Z,99625.56
2022-10-14T17:36:31.869Z,99624.91
2022-10-14T17:38:59.116Z,99624.16
2022-10-14T17:41:27.848Z,99625.84
2022-10-14T17:43:55.602Z,99621.47
2022-10-14T17:46:24.686Z,99618.84
2022-10-14T17:48:53.818Z,99619.50
2022-10-14T17:51:25.397Z,99624.72
2022-10-14T17:53:58.139Z,99620.97
2022-10-14T17:56:25.320Z,99619.69
2022-10-14T17:58:56.958Z,99616.03
2022-10-14T18:01:36.931Z,99617.34
2022-10-14T18:04:10.487Z,99613.72
2022-10-14T18:06:37.293Z,99604.56
2022-10-14T18:09:06.745Z,99609.19
2022-10-14T18:11:49.896Z,99605.97
2022-10-14T18:14:23.288Z,99606.56
2022-10-14T18:16:52.322Z,99613.00
2022-10-14T18:19:19.814Z,99612.03
2022-10-14T18:21:46.607Z,99611.28
2022-10-14T18:24:13.312Z,99604.88
2022-10-14T18:26:40.991Z,99610.31
2022-10-14T18:29:08.541Z,99597.69
2022-10-14T18:31:37.165Z,99593.50
2022-10-14T18:34:03.768Z,99593.13
2022-10-14T18:36:32.893Z,99592.00
2022-10-14T18:39:01.987Z,99584.19
2022-10-14T18:41:29.159Z,99573.56
2022-10-14T18:43:58.009Z,99574.88
2022-10-14T18:46:27.295Z,99571.44
2022-10-14T18:48:56.043Z,99564.25
2022-10-14T18:51:25.761Z,99561.38
2022-10-14T18:53:55.054Z,99566.69
2022-10-14T18:56:24.032Z,99571.88
2022-10-14T18:58:55.470Z,99574.16
2022-10-14T19:01:22.781Z,99570.19
2022-10-14T19:03:50.988Z,99566.28
2022-10-14T19:06:18.861Z,99561.72
2022-10-14T19:08:46.078Z,99562.56
2022-10-14T19:11:19.731Z,99560.22
2022-10-14T19:13:47.550Z,99557.91
2022-10-14T19:16:19.491Z,99551.66
2022-10-14T19:18:52.392Z,99549.78
2022-10-14T19:21:22.608Z,99550.22
2022-10-14T19:23:49.789Z,99549.78
2022-10-14T19:26:19.748Z,99548.38
2022-10-14T19:28:46.830Z,99549.00
2022-10-14T19:31:16.347Z,99541.16
2022-10-14T19:33:47.076Z,99536.25
2022-10-14T19:36:15.360Z,99534.66
2022-10-14T19:38:46.286Z,99531.19
2022-10-14T19:41:13.677Z,99522.06
2022-10-14T19:43:40.058Z,99511.31
2022-10-14T19:46:08.299Z,99514.41
2022-10-14T19:48:35.175Z,99510.97
2022-10-14T19:51:06.202Z,99509.63
2022-10-14T19:53:33.653Z,99496.25
2022-10-14T19:56:05.409Z,99502.91
2022-10-14T19:58:32.388Z,99494.88
2022-10-14T20:01:06.746Z,99493.16
2022-10-14T20:03:33.218Z,99489.75
2022-10-14T20:06:00.368Z,99484.13
2022-10-14T20:08:28.480Z,99486.38
2022-10-14T20:10:55.139Z,99474.00
2022-10-14T20:13:22.409Z,99473.22
2022-10-14T20:15:56.003Z,99472.66
2022-10-14T20:18:23.265Z,99467.56
2022-10-14T20:20:50.176Z,99466.13
2022-10-14T20:23:17.830Z,99468.09
2022-10-14T20:25:44.629Z,99460.66
2022-10-14T20:28:12.348Z,99457.69
2022-10-14T20:30:40.214Z,99458.63
2022-10-14T20:33:07.001Z,99451.47
2022-10-14T20:35:33.779Z,99454.25
2022-10-14T20:38:00.241Z,99453.03
2022-10-14T20:40:27.078Z,99452.22
2022-10-14T20:42:53.558Z,99455.31
2022-10-14T20:45:19.927Z,99439.47
2022-10-14T20:47:53.366Z,99441.72
2022-10-14T20:50:21.463Z,99432.91
2022-10-14T20:52:48.699Z,99442.63
2022-10-14T20:55:15.317Z,99444.16
2022-10-14T20:57:41.685Z,99442.19
2022-10-14T21:00:09.078Z,99437.53
2022-10-14T21:02:35.859Z,99435.75
2022-10-14T21:05:02.636Z,99430.69
2022-10-14T21:07:29.049Z,99430.31
2022-10-14T21:09:55.635Z,99428.28
2022-10-14T21:12:22.396Z,99429.03
2022-10-14T21:14:48.978Z,99429.41
2022-10-14T21:17:15.503Z,99424.66
2022-10-14T21:19:42.252Z,99432.25
2022-10-14T21:22:09.150Z,99436.25
2022-10-14T21:24:36.215Z,99428.44
2022-10-14T21:27:05.717Z,99411.56
2022-10-14T21:29:32.102Z,99408.31
2022-10-14T21:31:58.795Z,99399.34
2022-10-14T21:34:25.213Z,99398.22
2022-10-14T21:36:51.654Z,99398.00
2022-10-14T21:39:19.323Z,99392.63
2022-10-14T21:41:46.057Z,99388.78
2022-10-14T21:44:17.425Z,99381.50
2022-10-14T21:46:43.963Z,99378.59
2022-10-14T21:49:10.991Z,99375.44
2022-10-14T21:51:38.014Z,99369.19
2022-10-14T21:54:04.916Z,99361.06
2022-10-14T21:56:31.399Z,99358.94
2022-10-14T21:58:58.053Z,99355.78
2022-10-14T22:01:29.679Z,99359.44
2022-10-14T22:04:01.374Z,99356.22
2022-10-14T22:06:28.411Z,99357.81
2022-10-14T22:08:57.369Z,99352.88
2022-10-14T22:11:26.704Z,99351.28
2022-10-14T22:13:54.468Z,99360.50
2022-10-14T22:16:21.351Z,99346.31
2022-10-14T22:18:50.549Z,99346.13
2022-10-14T22:21:18.968Z,99341.94
2022-10-14T22:23:47.016Z,99330.84
2022-10-14T22:26:15.826Z,99334.41
2022-10-14T22:28:42.734Z,99320.03
2022-10-14T22:31:14.630Z,99315.28
2022-10-14T22:33:41.742Z,99318.16
2022-10-14T22:36:19.522Z,99319.72
2022-10-14T22:38:49.847Z,99317.59
2022-10-14T22:41:17.554Z,99314.97
2022-10-14T22:43:52.424Z,99319.56
2022-10-14T22:46:21.202Z,99314.13
2022-10-14T22:48:48.736Z,99320.09
2022-10-14T22:51:17.242Z,99315.91
2022-10-14T22:53:44.942Z,99313.41
2022-10-14T22:56:14.632Z,99310.25
2022-10-14T22:58:41.099Z,99310.13
2022-10-14T23:01:13.511Z,99296.13
2022-10-14T23:03:40.661Z,99293.53
2022-10-14T23:06:09.709Z,99280.03
2022-10-14T23:08:36.348Z,99282.28
2022-10-14T23:11:03.984Z,99276.63
2022-10-14T23:13:30.964Z,99275.16
2022-10-14T23:16:00.430Z,99268.91
2022-10-14T23:18:29.799Z,99271.22
2022-10-14T23:20:56.750Z,99262.50
2022-10-14T23:23:23.907Z,99270.38
2022-10-14T23:25:51.224Z,99253.78
2022-10-14T23:28:17.851Z,99253.31
2022-10-14T23:30:45.171Z,99240.84
2022-10-14T23:33:12.740Z,99244.41
2022-10-14T23:35:39.370Z,99249.50
2022-10-14T23:38:06.149Z,99243.09
2022-10-14T23:40:32.878Z,99242.25
2022-10-14T23:42:59.523Z,99237.09
2022-10-14T23:45:26.030Z,99241.03
2022-10-14T23:47:52.791Z,99234.84
2022-10-14T23:50:19.407Z,99226.47
2022-10-14T23:52:45.990Z,99230.47
2022-10-14T23:55:13.268Z,99232.16
2022-10-14T23:57:40.383Z,99232.53
